Time;durP1;ratioP1;P1;durP2;ratioP2;P2;SDS_P1;SDS_P2;PMS_P1;PMS_P2;Temp;Humidity;BMP_temperature;BMP_pressure;BME280_temperature;BME280_humidity;BME280_pressure;Samples;Min_cycle;Max_cycle;Signal;HPM_P1;HPM_P2
2021/09/03 00:01:21;;;;;;;10.30;9.30;;;12.60;99.90;;;;;;5056750;28;21024;-79
2021/09/03 00:03:49;;;;;;;9.73;8.73;;;12.40;99.90;;;;;;5052078;28;20678;-80
2021/09/03 00:06:16;;;;;;;10.57;9.47;;;12.50;99.90;;;;;;5064530;28;20626;-79
2021/09/03 00:08:43;;;;;;;11.67;9.43;;;12.40;99.90;;;;;;5059038;28;20663;-79
2021/09/03 00:11:11;;;;;;;11.37;10.20;;;12.50;99.90;;;;;;5055710;28;20654;-79
2021/09/03 00:13:38;;;;;;;10.53;9.53;;;12.50;99.90;;;;;;5055720;28;21229;-79
2021/09/03 00:16:05;;;;;;;10.10;9.07;;;12.40;99.90;;;;;;5047312;28;20648;-79
2021/09/03 00:18:32;;;;;;;10.90;9.80;;;12.40;99.90;;;;;;5066963;28;21241;-79
2021/09/03 00:20:59;;;;;;;11.90;8.30;;;12.50;99.90;;;;;;5072455;28;20759;-79
2021/09/03 00:23:26;;;;;;;10.30;8.97;;;12.40;99.90;;;;;;5055225;28;20682;-79
2021/09/03 00:25:53;;;;;;;9.90;8.80;;;12.30;99.90;;;;;;5073888;28;20739;-79
2021/09/03 00:28:22;;;;;;;13.23;10.00;;;12.30;99.90;;;;;;5080669;28;20625;-79
2021/09/03 00:30:49;;;;;;;10.47;9.47;;;12.30;99.90;;;;;;5067293;28;20630;-79
2021/09/03 00:33:16;;;;;;;11.13;9.70;;;12.30;99.90;;;;;;5060728;28;21169;-79
2021/09/03 00:35:43;;;;;;;13.63;10.00;;;12.30;99.90;;;;;;5058382;28;20671;-79
2021/09/03 00:38:09;;;;;;;13.63;11.13;;;12.30;99.90;;;;;;5052488;28;20603;-79
2021/09/03 00:40:36;;;;;;;12.40;11.10;;;12.30;99.90;;;;;;5060910;28;20661;-79
2021/09/03 00:43:03;;;;;;;13.80;11.83;;;12.30;99.90;;;;;;5071701;28;20664;-79
2021/09/03 00:45:32;;;;;;;11.73;10.50;;;12.20;99.90;;;;;;5069233;28;20654;-79
2021/09/03 00:47:59;;;;;;;11.77;10.10;;;12.20;99.90;;;;;;5061422;28;20662;-79
2021/09/03 00:50:26;;;;;;;12.00;10.90;;;12.20;99.90;;;;;;5052068;28;21214;-79
2021/09/03 00:52:53;;;;;;;12.80;11.13;;;12.20;99.90;;;;;;5061165;28;20653;-79
2021/09/03 00:55:20;;;;;;;10.87;9.83;;;12.20;99.90;;;;;;5051235;28;21059;-79
2021/09/03 00:57:48;;;;;;;8.83;8.00;;;12.10;99.90;;;;;;5051816;28;21011;-79
2021/09/03 01:00:16;;;;;;;9.40;8.40;;;12.10;99.90;;;;;;5051523;28;20608;-79
2021/09/03 01:02:44;;;;;;;10.20;9.20;;;12.10;99.90;;;;;;5051736;28;20623;-79
2021/09/03 01:05:15;;;;;;;10.17;9.10;;;12.10;99.90;;;;;;5049913;28;20630;-79
2021/09/03 01:07:43;;;;;;;9.73;8.70;;;12.10;99.90;;;;;;5052248;28;20669;-79
2021/09/03 01:10:15;;;;;;;9.83;8.83;;;12.10;99.90;;;;;;5051181;28;20649;-79
2021/09/03 01:12:43;;;;;;;10.67;9.60;;;12.00;99.90;;;;;;5050898;28;20622;-79
2021/09/03 01:15:11;;;;;;;13.47;9.77;;;12.00;99.90;;;;;;5050865;28;20650;-79
2021/09/03 01:17:40;;;;;;;10.03;9.03;;;12.00;99.90;;;;;;5051724;28;20622;-79
2021/09/03 01:20:12;;;;;;;10.67;9.17;;;12.00;99.90;;;;;;5051449;28;20718;-79
2021/09/03 01:22:42;;;;;;;11.97;10.10;;;12.00;99.90;;;;;;5051716;28;20613;-79
2021/09/03 01:25:11;;;;;;;10.10;9.10;;;12.00;99.90;;;;;;5047681;28;21811;-79
2021/09/03 01:27:40;;;;;;;13.30;10.10;;;12.00;99.90;;;;;;5049200;28;21419;-79
2021/09/03 01:30:12;;;;;;;10.90;9.80;;;12.00;99.90;;;;;;5051312;28;20645;-79
2021/09/03 01:32:44;;;;;;;14.63;10.50;;;12.00;99.90;;;;;;5051703;28;20641;-78
2021/09/03 01:35:13;;;;;;;14.20;10.87;;;11.90;99.90;;;;;;5050548;28;20687;-79
2021/09/03 01:37:42;;;;;;;11.80;9.93;;;12.00;99.90;;;;;;5050862;28;20623;-79
2021/09/03 01:40:11;;;;;;;11.43;9.67;;;11.90;99.90;;;;;;5051466;28;20741;-79
2021/09/03 01:42:39;;;;;;;10.87;9.80;;;11.90;99.90;;;;;;5051416;28;21178;-78
2021/09/03 01:45:08;;;;;;;9.53;8.50;;;11.80;99.90;;;;;;5050573;28;20626;-78
2021/09/03 01:47:36;;;;;;;11.00;9.50;;;11.80;99.90;;;;;;5051026;28;20713;-79
2021/09/03 01:50:05;;;;;;;14.07;8.73;;;11.80;99.90;;;;;;5050552;28;21179;-78
2021/09/03 01:52:35;;;;;;;10.00;8.60;;;11.80;99.90;;;;;;5053973;28;20633;-78
2021/09/03 01:55:05;;;;;;;9.00;7.80;;;11.70;99.90;;;;;;5069473;28;20660;-78
2021/09/03 01:57:34;;;;;;;11.50;10.00;;;11.70;99.90;;;;;;5070228;28;20659;-79
2021/09/03 02:00:01;;;;;;;10.70;8.63;;;11.60;99.90;;;;;;5070278;28;20649;-79
2021/09/03 02:02:31;;;;;;;10.47;9.37;;;11.70;99.90;;;;;;5069845;28;20621;-78
2021/09/03 02:04:59;;;;;;;10.30;8.37;;;11.60;99.90;;;;;;5069007;28;20629;-78
2021/09/03 02:07:29;;;;;;;10.30;8.43;;;11.70;99.90;;;;;;5069386;28;20625;-78
2021/09/03 02:09:57;;;;;;;10.10;7.83;;;11.60;99.90;;;;;;5068860;28;20618;-78
2021/09/03 02:12:26;;;;;;;10.13;8.23;;;11.60;99.90;;;;;;5068650;28;21019;-79
2021/09/03 02:14:54;;;;;;;11.00;9.90;;;11.60;99.90;;;;;;5069842;28;20645;-79
2021/09/03 02:17:22;;;;;;;8.80;7.90;;;11.60;99.90;;;;;;5070183;28;20700;-78
2021/09/03 02:19:49;;;;;;;12.20;9.10;;;11.60;99.90;;;;;;5068826;28;21271;-79
2021/09/03 02:22:19;;;;;;;10.60;9.13;;;11.60;99.90;;;;;;5063221;28;20629;-80
2021/09/03 02:24:49;;;;;;;10.00;9.00;;;11.50;99.90;;;;;;5055869;28;20645;-79
2021/09/03 02:27:18;;;;;;;10.77;8.90;;;11.50;99.90;;;;;;5060334;28;20633;-79
2021/09/03 02:29:49;;;;;;;8.20;7.40;;;11.50;99.90;;;;;;5054240;28;20633;-79
2021/09/03 02:32:19;;;;;;;9.60;8.60;;;11.50;99.90;;;;;;5068907;28;20632;-79
2021/09/03 02:34:48;;;;;;;12.73;9.47;;;11.50;99.90;;;;;;5059537;28;20694;-79
2021/09/03 02:37:16;;;;;;;10.03;9.00;;;11.50;99.90;;;;;;5044881;28;20700;-79
2021/09/03 02:39:44;;;;;;;12.57;10.43;;;11.50;99.90;;;;;;5050289;28;21086;-79
2021/09/03 02:42:12;;;;;;;10.40;9.30;;;11.50;99.90;;;;;;5050343;28;21039;-79
2021/09/03 02:44:39;;;;;;;12.13;8.73;;;11.50;99.90;;;;;;5069898;28;20622;-79
2021/09/03 02:47:09;;;;;;;10.83;8.17;;;11.50;99.90;;;;;;5070030;28;20691;-79
2021/09/03 02:49:38;;;;;;;9.83;8.93;;;11.40;99.90;;;;;;5070257;28;20622;-79
2021/09/03 02:52:06;;;;;;;13.27;8.80;;;11.40;99.90;;;;;;5069564;28;20621;-79
2021/09/03 02:54:35;;;;;;;10.07;8.73;;;11.40;99.90;;;;;;5068516;28;20625;-78
2021/09/03 02:57:04;;;;;;;10.57;9.47;;;11.40;99.90;;;;;;5069826;28;20627;-79
2021/09/03 02:59:32;;;;;;;9.77;8.73;;;11.30;99.90;;;;;;5067238;28;20637;-78
2021/09/03 03:02:00;;;;;;;10.17;8.93;;;11.30;99.90;;;;;;5050003;28;20649;-78
2021/09/03 03:04:29;;;;;;;13.43;10.13;;;11.30;99.90;;;;;;5048298;28;20717;-79
2021/09/03 03:06:58;;;;;;;9.57;8.57;;;11.30;99.90;;;;;;5049814;28;20684;-79
2021/09/03 03:09:27;;;;;;;11.50;9.80;;;11.20;99.90;;;;;;5050020;28;21013;-79
2021/09/03 03:11:56;;;;;;;11.97;9.83;;;11.30;99.90;;;;;;5049949;28;20630;-79
2021/09/03 03:14:32;;;;;;;10.97;9.97;;;11.20;99.90;;;;;;5049371;28;20633;-79
2021/09/03 03:17:01;;;;;;;12.20;10.80;;;11.30;99.90;;;;;;5049696;28;20680;-79
2021/09/03 03:19:30;;;;;;;11.80;10.00;;;11.30;99.90;;;;;;5043644;28;20639;-79
2021/09/03 03:21:57;;;;;;;10.20;9.20;;;11.10;99.90;;;;;;5049679;28;20630;-78
2021/09/03 03:24:24;;;;;;;11.80;10.60;;;11.10;99.90;;;;;;5049022;28;20625;-79
2021/09/03 03:26:51;;;;;;;10.93;9.83;;;11.10;99.90;;;;;;5054205;28;20678;-79
2021/09/03 03:29:18;;;;;;;11.23;10.13;;;11.10;99.90;;;;;;5080808;28;20614;-79
2021/09/03 03:31:45;;;;;;;9.40;8.00;;;11.10;99.90;;;;;;5069743;28;20675;-78
2021/09/03 03:34:12;;;;;;;8.60;7.70;;;11.10;99.90;;;;;;5061112;28;20614;-79
2021/09/03 03:36:40;;;;;;;10.53;9.53;;;11.10;99.90;;;;;;5070640;28;20671;-78
2021/09/03 03:39:08;;;;;;;9.63;8.63;;;11.00;99.90;;;;;;5073403;28;20613;-78
2021/09/03 03:41:35;;;;;;;10.87;8.90;;;10.90;99.90;;;;;;5073415;28;21038;-78
2021/09/03 03:44:02;;;;;;;10.87;9.40;;;10.90;99.90;;;;;;5072692;28;20609;-79
2021/09/03 03:46:29;;;;;;;10.40;9.33;;;10.90;99.90;;;;;;5073486;28;20620;-79
2021/09/03 03:48:56;;;;;;;10.17;9.17;;;10.90;99.90;;;;;;5072665;28;20593;-78
2021/09/03 03:51:23;;;;;;;14.07;9.80;;;10.90;99.90;;;;;;5073203;28;21231;-79
2021/09/03 03:53:51;;;;;;;10.27;9.13;;;10.90;99.90;;;;;;5072580;28;20671;-79
2021/09/03 03:56:18;;;;;;;11.83;10.40;;;10.90;99.90;;;;;;5073127;28;20652;-79
2021/09/03 03:58:45;;;;;;;11.80;10.60;;;10.90;99.90;;;;;;5072771;28;20594;-79
2021/09/03 04:01:12;;;;;;;11.30;10.20;;;10.90;99.90;;;;;;5072163;28;20625;-79
2021/09/03 04:03:39;;;;;;;11.53;9.17;;;10.90;99.90;;;;;;5070880;28;20637;-79
2021/09/03 04:06:06;;;;;;;12.77;10.27;;;10.80;99.90;;;;;;5072748;28;20612;-79
2021/09/03 04:08:33;;;;;;;11.30;9.70;;;10.90;99.90;;;;;;5073244;28;20625;-79
2021/09/03 04:11:01;;;;;;;12.30;11.00;;;10.80;99.90;;;;;;5073072;28;21026;-79
2021/09/03 04:13:28;;;;;;;11.20;10.10;;;10.80;99.90;;;;;;5072482;28;20621;-79
2021/09/03 04:15:55;;;;;;;11.33;10.10;;;10.80;99.90;;;;;;5072066;28;20695;-78
2021/09/03 04:18:22;;;;;;;10.80;9.70;;;10.80;99.90;;;;;;5072492;28;20625;-79
2021/09/03 04:20:49;;;;;;;11.33;10.17;;;10.80;99.90;;;;;;5069034;28;20618;-78
2021/09/03 04:23:16;;;;;;;12.57;10.53;;;10.80;99.90;;;;;;5059733;28;20624;-78
2021/09/03 04:25:43;;;;;;;12.23;9.73;;;10.80;99.90;;;;;;5059460;28;20617;-79
2021/09/03 04:28:12;;;;;;;12.00;10.37;;;10.70;99.90;;;;;;5062011;28;20610;-78
2021/09/03 04:30:40;;;;;;;12.53;11.20;;;10.80;99.90;;;;;;5047556;28;20739;-78
2021/09/03 04:33:06;;;;;;;11.60;10.23;;;10.70;99.90;;;;;;5052885;28;20722;-79
2021/09/03 04:35:33;;;;;;;9.83;8.80;;;10.80;99.90;;;;;;5060097;28;20715;-78
2021/09/03 04:38:00;;;;;;;13.00;9.73;;;10.80;99.90;;;;;;5052701;28;20617;-79
2021/09/03 04:40:27;;;;;;;15.50;10.03;;;10.70;99.90;;;;;;5053001;28;20956;-79
2021/09/03 04:42:54;;;;;;;10.87;9.70;;;10.70;99.90;;;;;;5052667;28;20614;-79
2021/09/03 04:45:22;;;;;;;12.27;9.73;;;10.70;99.90;;;;;;5051922;28;20630;-79
2021/09/03 04:47:50;;;;;;;12.40;10.70;;;10.60;99.90;;;;;;5060833;28;21033;-79
2021/09/03 04:50:17;;;;;;;12.70;10.00;;;10.70;99.90;;;;;;5060740;28;21171;-79
2021/09/03 04:52:44;;;;;;;9.80;8.47;;;10.70;99.90;;;;;;5062194;28;20622;-79
2021/09/03 04:55:12;;;;;;;12.70;9.77;;;10.80;99.90;;;;;;5061651;28;20618;-79
2021/09/03 04:57:40;;;;;;;10.83;9.70;;;10.80;99.90;;;;;;5068611;28;20621;-79
2021/09/03 05:00:09;;;;;;;12.07;9.57;;;10.80;99.90;;;;;;5072253;28;20632;-79
2021/09/03 05:02:37;;;;;;;9.93;8.93;;;10.80;99.90;;;;;;5069195;28;20996;-79
2021/09/03 05:05:05;;;;;;;12.47;10.33;;;10.80;99.90;;;;;;5055186;28;20617;-79
2021/09/03 05:07:32;;;;;;;12.00;9.40;;;10.70;99.90;;;;;;5069621;28;20625;-79
2021/09/03 05:09:59;;;;;;;13.20;10.50;;;10.70;99.90;;;;;;5069879;28;21162;-79
2021/09/03 05:12:26;;;;;;;12.87;10.23;;;10.80;99.90;;;;;;5061869;28;20662;-79
2021/09/03 05:14:53;;;;;;;13.00;9.50;;;10.80;99.90;;;;;;5059954;28;20619;-79
2021/09/03 05:17:21;;;;;;;12.67;9.63;;;10.80;99.90;;;;;;5063121;28;20701;-79
2021/09/03 05:19:50;;;;;;;11.77;9.33;;;10.80;99.90;;;;;;5071706;28;20714;-79
2021/09/03 05:22:17;;;;;;;11.43;8.70;;;10.80;99.90;;;;;;5071711;28;20614;-79
2021/09/03 05:24:43;;;;;;;10.63;9.53;;;10.80;99.90;;;;;;5070600;28;20709;-79
2021/09/03 05:27:10;;;;;;;12.63;9.60;;;10.80;99.90;;;;;;5060302;28;20629;-79
2021/09/03 05:29:37;;;;;;;11.20;9.63;;;10.90;99.90;;;;;;5057172;28;20676;-79
2021/09/03 05:32:05;;;;;;;12.80;9.57;;;10.90;99.90;;;;;;5069164;28;20630;-79
2021/09/03 05:34:31;;;;;;;11.07;9.70;;;11.00;99.90;;;;;;5063145;28;21028;-79
2021/09/03 05:37:00;;;;;;;12.00;9.27;;;11.10;99.90;;;;;;5051059;28;20642;-79
2021/09/03 05:39:27;;;;;;;12.50;11.17;;;11.20;99.90;;;;;;5051504;28;20629;-80
2021/09/03 05:42:06;;;;;;;15.10;10.67;;;11.30;99.90;;;;;;5051812;28;20653;-81
2021/09/03 05:44:33;;;;;;;15.13;10.83;;;11.30;99.90;;;;;;5067338;28;20640;-80
2021/09/03 05:47:00;;;;;;;17.10;9.80;;;11.40;99.90;;;;;;5062381;28;21228;-80
2021/09/03 05:49:27;;;;;;;13.87;11.10;;;11.40;99.90;;;;;;5068187;28;20633;-80
2021/09/03 05:51:54;;;;;;;17.47;9.20;;;11.50;99.90;;;;;;5068005;28;21320;-79
2021/09/03 05:54:22;;;;;;;16.77;10.93;;;11.60;99.90;;;;;;5069104;28;20707;-79
2021/09/03 05:56:49;;;;;;;14.77;11.13;;;11.70;99.90;;;;;;5056715;28;20710;-79
2021/09/03 05:59:16;;;;;;;15.00;10.47;;;11.80;99.90;;;;;;5049636;28;20638;-79
2021/09/03 06:01:43;;;;;;;16.80;9.63;;;11.90;99.90;;;;;;5065111;28;20647;-81
2021/09/03 06:04:13;;;;;;;12.57;10.60;;;12.00;99.90;;;;;;5068354;28;21228;-83
2021/09/03 06:06:40;;;;;;;16.43;11.57;;;12.10;99.90;;;;;;5064398;28;20641;-81
2021/09/03 06:09:07;;;;;;;13.70;12.30;;;12.30;99.90;;;;;;5069667;28;21119;-81
2021/09/03 06:11:35;;;;;;;16.27;12.50;;;12.40;99.90;;;;;;5069521;28;20665;-81
2021/09/03 06:14:02;;;;;;;15.40;11.17;;;12.60;99.90;;;;;;5069294;28;20653;-81
2021/09/03 06:16:29;;;;;;;15.70;12.60;;;12.70;99.90;;;;;;5069076;28;20708;-81
2021/09/03 06:18:55;;;;;;;12.93;11.17;;;12.80;99.90;;;;;;5069176;28;20732;-82
2021/09/03 06:21:22;;;;;;;14.07;11.00;;;13.00;99.90;;;;;;5062740;28;20618;-81
2021/09/03 06:23:49;;;;;;;12.00;10.77;;;13.10;99.90;;;;;;5045029;28;20647;-80
2021/09/03 06:26:16;;;;;;;12.63;11.33;;;13.20;99.90;;;;;;5050016;28;20666;-81
2021/09/03 06:28:45;;;;;;;18.90;12.30;;;13.30;99.90;;;;;;5081852;28;20618;-81
2021/09/03 06:31:12;;;;;;;15.03;10.70;;;13.50;99.90;;;;;;5068603;28;20638;-82
2021/09/03 06:33:39;;;;;;;11.10;10.00;;;13.50;99.90;;;;;;5059075;28;20703;-81
2021/09/03 06:36:06;;;;;;;11.17;9.77;;;13.70;99.90;;;;;;5069175;28;20652;-79
2021/09/03 06:38:33;;;;;;;11.10;10.00;;;13.80;99.90;;;;;;5064811;28;20627;-81
2021/09/03 06:41:00;;;;;;;15.40;10.80;;;13.90;99.90;;;;;;5050082;28;20688;-81
2021/09/03 06:43:27;;;;;;;10.90;9.80;;;14.10;99.90;;;;;;5055936;28;20656;-80
2021/09/03 06:45:55;;;;;;;12.60;9.93;;;14.20;99.90;;;;;;5067023;28;20632;-80
2021/09/03 06:48:23;;;;;;;10.33;9.30;;;14.20;99.90;;;;;;5049782;28;21244;-80
2021/09/03 06:50:51;;;;;;;11.03;9.47;;;14.30;99.90;;;;;;5056097;28;20626;-81
2021/09/03 06:53:17;;;;;;;14.47;9.47;;;14.40;99.90;;;;;;5059274;28;20636;-81
2021/09/03 06:55:44;;;;;;;10.60;9.07;;;14.50;99.90;;;;;;5049493;28;20672;-80
2021/09/03 06:58:12;;;;;;;12.17;9.93;;;14.70;99.90;;;;;;5066175;28;21050;-81
2021/09/03 07:00:38;;;;;;;10.13;8.73;;;14.80;99.90;;;;;;5051342;28;21464;-81
2021/09/03 07:03:07;;;;;;;10.10;9.10;;;14.90;99.90;;;;;;5069865;28;20980;-81
2021/09/03 07:05:34;;;;;;;10.77;9.57;;;14.80;99.90;;;;;;5067579;28;20624;-80
2021/09/03 07:08:01;;;;;;;10.27;9.00;;;14.90;99.90;;;;;;5068116;28;20667;-80
2021/09/03 07:10:29;;;;;;;11.90;10.70;;;15.00;99.90;;;;;;5069248;28;20668;-81
2021/09/03 07:12:59;;;;;;;10.90;9.47;;;15.10;99.90;;;;;;5072764;28;20635;-81
2021/09/03 07:15:26;;;;;;;11.00;9.90;;;15.30;99.90;;;;;;5073042;28;21443;-81
2021/09/03 07:17:53;;;;;;;12.93;10.07;;;15.40;99.90;;;;;;5073224;28;20714;-80
2021/09/03 07:20:21;;;;;;;10.53;9.30;;;15.50;99.90;;;;;;5072182;28;20699;-81
2021/09/03 07:22:56;;;;;;;10.67;8.53;;;15.30;99.90;;;;;;5068515;28;20618;-81
2021/09/03 07:25:24;;;;;;;12.27;10.27;;;15.40;99.90;;;;;;5070936;28;20625;-81
2021/09/03 07:27:50;;;;;;;11.20;9.73;;;15.40;99.90;;;;;;5072732;28;20606;-81
2021/09/03 07:30:17;;;;;;;10.93;9.73;;;15.50;99.90;;;;;;5072593;28;20630;-80
2021/09/03 07:32:44;;;;;;;12.90;9.03;;;15.70;99.90;;;;;;5072652;28;20625;-80
2021/09/03 07:35:13;;;;;;;9.83;8.27;;;15.70;99.90;;;;;;5068489;28;20617;-81
2021/09/03 07:37:42;;;;;;;12.60;9.70;;;15.90;99.90;;;;;;5072278;28;20646;-81
2021/09/03 07:40:11;;;;;;;10.33;9.33;;;15.80;99.90;;;;;;5072332;28;20613;-81
2021/09/03 07:42:38;;;;;;;11.87;9.60;;;15.80;99.90;;;;;;5072684;28;21160;-80
2021/09/03 07:45:06;;;;;;;13.30;8.47;;;16.20;99.90;;;;;;5072610;28;20664;-81
2021/09/03 07:47:33;;;;;;;10.80;9.00;;;16.20;99.90;;;;;;5072145;28;21051;-81
2021/09/03 07:50:00;;;;;;;10.63;9.63;;;16.40;99.90;;;;;;5066955;28;20644;-81
2021/09/03 07:52:27;;;;;;;13.80;9.03;;;16.60;99.90;;;;;;5071961;28;20621;-81
2021/09/03 07:54:55;;;;;;;11.63;10.13;;;16.60;99.40;;;;;;5072107;28;20995;-82
2021/09/03 07:57:22;;;;;;;12.77;9.27;;;16.70;99.30;;;;;;5071898;28;20664;-82
2021/09/03 07:59:49;;;;;;;10.67;9.43;;;16.80;99.30;;;;;;5072075;28;20613;-81
2021/09/03 08:02:16;;;;;;;10.00;9.03;;;16.90;98.80;;;;;;5072068;28;20671;-81
2021/09/03 08:04:43;;;;;;;10.67;8.77;;;16.90;98.80;;;;;;5071182;28;21176;-81
2021/09/03 08:07:10;;;;;;;9.60;8.60;;;17.10;99.00;;;;;;5071571;28;20602;-82
2021/09/03 08:09:37;;;;;;;10.80;9.37;;;17.20;98.70;;;;;;5066707;28;21245;-81
2021/09/03 08:12:06;;;;;;;9.57;8.63;;;17.10;98.50;;;;;;5072202;28;20622;-81
2021/09/03 08:14:35;;;;;;;10.57;8.60;;;17.20;98.70;;;;;;5071909;28;20618;-81
2021/09/03 08:17:02;;;;;;;9.90;8.90;;;17.40;97.50;;;;;;5071714;28;20658;-81
2021/09/03 08:19:29;;;;;;;9.50;8.50;;;17.60;96.80;;;;;;5033417;28;1111954;-82
2021/09/03 08:21:56;;;;;;;9.27;8.37;;;17.50;96.40;;;;;;5072619;28;20307;-81
2021/09/03 08:24:23;;;;;;;10.67;8.67;;;17.50;97.00;;;;;;5072880;28;21040;-82
2021/09/03 08:26:50;;;;;;;9.80;8.67;;;17.70;97.00;;;;;;5072998;28;20620;-82
2021/09/03 08:29:18;;;;;;;9.63;8.70;;;17.70;96.90;;;;;;5072791;28;20628;-82
2021/09/03 08:31:45;;;;;;;9.00;8.20;;;17.70;97.10;;;;;;5074538;28;20609;-82
2021/09/03 08:34:12;;;;;;;9.17;8.37;;;17.70;97.80;;;;;;5073243;28;20652;-82
2021/09/03 08:36:39;;;;;;;10.20;8.70;;;17.70;97.40;;;;;;5072674;28;20734;-81
2021/09/03 08:39:06;;;;;;;9.60;8.57;;;18.00;97.30;;;;;;5074458;28;20608;-82
2021/09/03 08:41:33;;;;;;;15.53;9.30;;;18.10;96.70;;;;;;5074385;28;20620;-82
2021/09/03 08:44:00;;;;;;;9.83;8.70;;;18.00;96.80;;;;;;5073655;28;20685;-81
2021/09/03 08:46:29;;;;;;;9.47;8.53;;;18.00;96.90;;;;;;5073426;28;20687;-81
2021/09/03 08:48:56;;;;;;;8.43;7.70;;;18.30;96.30;;;;;;5072351;28;20624;-82
2021/09/03 08:51:26;;;;;;;10.13;8.37;;;18.30;96.60;;;;;;5073082;28;20640;-82
2021/09/03 08:53:55;;;;;;;9.40;8.50;;;18.30;96.00;;;;;;5073499;28;21134;-81
2021/09/03 08:56:22;;;;;;;9.23;8.40;;;18.30;95.80;;;;;;5073067;28;20617;-82
2021/09/03 08:58:53;;;;;;;9.93;7.77;;;18.60;95.30;;;;;;5072615;28;20715;-83
2021/09/03 09:01:20;;;;;;;8.00;7.30;;;18.70;95.80;;;;;;5072298;28;21120;-81
2021/09/03 09:03:53;;;;;;;11.57;8.90;;;18.70;95.40;;;;;;5071709;28;20783;-81
2021/09/03 09:06:22;;;;;;;8.87;8.03;;;18.70;95.70;;;;;;5072375;28;20621;-80
2021/09/03 09:08:56;;;;;;;9.77;8.87;;;18.60;95.70;;;;;;5071912;28;20731;-80
2021/09/03 09:11:27;;;;;;;9.70;8.70;;;18.80;95.20;;;;;;5072396;28;20617;-82
2021/09/03 09:13:58;;;;;;;11.03;8.63;;;18.90;95.20;;;;;;5071170;28;20725;-80
2021/09/03 09:16:28;;;;;;;8.60;7.90;;;19.00;95.20;;;;;;5072034;28;20614;-81
2021/09/03 09:19:03;;;;;;;9.20;8.23;;;19.10;94.40;;;;;;5071867;28;20671;-82
2021/09/03 09:21:31;;;;;;;11.30;8.87;;;19.20;94.70;;;;;;5067989;28;21083;-81
2021/09/03 09:24:00;;;;;;;9.47;8.50;;;19.20;93.80;;;;;;5072513;28;20621;-82
2021/09/03 09:26:29;;;;;;;8.30;7.50;;;19.20;94.00;;;;;;5072341;28;20739;-82
2021/09/03 09:28:57;;;;;;;9.80;8.70;;;19.40;94.20;;;;;;5071684;28;20663;-82
2021/09/03 09:31:32;;;;;;;9.90;8.20;;;19.50;94.10;;;;;;5073673;28;20702;-81
2021/09/03 09:34:11;;;;;;;10.63;9.67;;;19.50;94.60;;;;;;5065956;28;20630;-83
2021/09/03 09:36:39;;;;;;;9.20;8.40;;;19.60;94.00;;;;;;5058907;28;20671;-82
2021/09/03 09:39:06;;;;;;;8.87;7.97;;;19.80;93.30;;;;;;5077095;28;20715;-81
2021/09/03 09:41:33;;;;;;;9.30;8.40;;;19.80;93.30;;;;;;5071895;28;20614;-80
2021/09/03 09:44:00;;;;;;;9.03;7.83;;;19.90;93.20;;;;;;5072212;28;20613;-81
2021/09/03 09:46:28;;;;;;;9.90;8.83;;;19.90;93.10;;;;;;5072786;28;20609;-80
2021/09/03 09:49:17;;;;;;;9.10;8.20;;;20.00;92.60;;;;;;5073091;28;20702;-81
2021/09/03 09:51:51;;;;;;;10.90;9.87;;;20.10;93.10;;;;;;5067257;28;20756;-82
2021/09/03 09:54:21;;;;;;;9.83;8.60;;;20.00;92.80;;;;;;5071238;28;20621;-80
2021/09/03 09:56:50;;;;;;;9.67;8.60;;;20.20;93.10;;;;;;5070678;28;20621;-80
2021/09/03 09:59:21;;;;;;;10.13;9.00;;;20.20;93.30;;;;;;5072271;28;21258;-80
2021/09/03 10:01:51;;;;;;;8.93;8.10;;;20.20;92.90;;;;;;5070731;28;20636;-81
2021/09/03 10:04:21;;;;;;;9.87;7.93;;;20.20;92.40;;;;;;5067483;28;21164;-80
2021/09/03 10:06:50;;;;;;;8.80;8.00;;;20.40;92.50;;;;;;5052379;28;20668;-81
2021/09/03 10:09:30;;;;;;;8.87;8.07;;;20.50;92.90;;;;;;5060941;28;20653;-83
2021/09/03 10:11:58;;;;;;;8.33;7.53;;;20.80;92.10;;;;;;5067835;28;20702;-81
2021/09/03 10:14:27;;;;;;;7.27;6.53;;;20.80;92.50;;;;;;5071712;28;21444;-81
2021/09/03 10:17:05;;;;;;;8.27;7.03;;;20.90;92.50;;;;;;5070200;28;20654;-82
2021/09/03 10:19:37;;;;;;;8.80;7.93;;;21.00;92.10;;;;;;5054930;28;20707;-83
2021/09/03 10:22:07;;;;;;;9.40;8.40;;;21.00;91.90;;;;;;5066581;28;20732;-83
2021/09/03 10:24:36;;;;;;;10.03;8.47;;;21.20;91.10;;;;;;5069050;28;21199;-82
2021/09/03 10:27:10;;;;;;;11.17;8.73;;;21.10;91.20;;;;;;5067948;28;21356;-82
2021/09/03 10:29:39;;;;;;;9.73;8.77;;;21.20;90.90;;;;;;5064705;28;20626;-81
2021/09/03 10:32:19;;;;;;;9.17;8.33;;;21.30;90.30;;;;;;5070464;28;20626;-82
2021/09/03 10:34:55;;;;;;;11.00;7.60;;;21.10;91.90;;;;;;5062153;28;20969;-81
2021/09/03 10:37:29;;;;;;;9.70;7.57;;;21.20;90.70;;;;;;5054844;28;21310;-82
2021/09/03 10:40:02;;;;;;;9.33;8.43;;;21.30;91.30;;;;;;5051418;28;21079;-79
2021/09/03 10:43:04;;;;;;;14.50;9.13;;;21.50;90.10;;;;;;5068480;28;20635;-80
2021/09/03 10:45:49;;;;;;;9.07;8.17;;;21.50;90.30;;;;;;5069667;28;20635;-81
2021/09/03 10:48:26;;;;;;;9.13;8.33;;;21.60;90.50;;;;;;5070724;28;20619;-83
2021/09/03 10:51:00;;;;;;;8.60;7.80;;;21.90;90.30;;;;;;5070356;28;20953;-82
2021/09/03 10:53:32;;;;;;;10.20;9.23;;;22.00;90.20;;;;;;5070996;28;20631;-82
2021/09/03 10:56:18;;;;;;;8.90;8.10;;;22.00;90.50;;;;;;5056970;28;20637;-81
2021/09/03 10:58:48;;;;;;;9.17;8.27;;;22.20;89.30;;;;;;5054352;28;20660;-81
2021/09/03 11:02:00;;;;;;;8.80;7.93;;;22.40;90.00;;;;;;5059422;28;20616;-83
2021/09/03 11:04:27;;;;;;;8.63;7.53;;;22.20;90.20;;;;;;5055793;28;21547;-81
2021/09/03 11:07:08;;;;;;;10.47;9.27;;;22.40;90.40;;;;;;5060255;28;20630;-82
2021/09/03 11:09:36;;;;;;;9.80;8.87;;;22.40;90.40;;;;;;5059054;28;20605;-82
2021/09/03 11:12:09;;;;;;;8.30;7.63;;;22.60;90.10;;;;;;5053280;28;21189;-83
2021/09/03 11:14:36;;;;;;;9.30;8.40;;;22.70;89.00;;;;;;5056694;28;21177;-82
2021/09/03 11:17:05;;;;;;;9.20;8.30;;;22.80;90.70;;;;;;5066068;28;20615;-83
2021/09/03 11:19:34;;;;;;;9.57;8.03;;;22.90;88.40;;;;;;5062724;28;20658;-83
2021/09/03 11:22:04;;;;;;;7.47;6.87;;;23.00;88.20;;;;;;5060030;28;20611;-81
2021/09/03 11:24:33;;;;;;;9.33;8.43;;;23.30;88.40;;;;;;5069040;28;20681;-83
2021/09/03 11:27:05;;;;;;;8.87;8.07;;;23.30;86.50;;;;;;5060751;28;20640;-82
2021/09/03 11:29:34;;;;;;;9.33;8.03;;;23.40;88.30;;;;;;5067206;28;20731;-83
2021/09/03 11:32:08;;;;;;;9.00;8.17;;;23.50;86.10;;;;;;5068648;28;20617;-83
2021/09/03 11:34:53;;;;;;;8.03;7.33;;;23.50;86.80;;;;;;5066628;28;20735;-82
2021/09/03 11:37:29;;;;;;;8.30;7.47;;;23.50;86.40;;;;;;5064169;28;21194;-81
2021/09/03 11:40:12;;;;;;;8.50;7.27;;;24.10;85.50;;;;;;5061047;28;20917;-81
2021/09/03 11:42:41;;;;;;;8.83;7.73;;;24.30;82.50;;;;;;5058557;28;20642;-82
2021/09/03 11:45:12;;;;;;;9.60;7.50;;;24.60;82.80;;;;;;5062118;28;20646;-82
2021/09/03 11:47:51;;;;;;;7.60;7.00;;;25.00;81.00;;;;;;5061164;28;20645;-83
2021/09/03 11:50:21;;;;;;;8.13;7.30;;;25.20;80.00;;;;;;5057169;28;21229;-81
2021/09/03 11:52:50;;;;;;;8.73;7.90;;;25.70;78.60;;;;;;5060583;28;20633;-83
2021/09/03 11:55:19;;;;;;;8.03;7.30;;;26.30;74.70;;;;;;5068428;28;20628;-83
2021/09/03 11:58:00;;;;;;;7.17;6.57;;;26.70;74.40;;;;;;5065171;28;20669;-83
2021/09/03 12:00:29;;;;;;;7.20;6.60;;;27.30;73.70;;;;;;5066127;28;20948;-85
2021/09/03 12:02:58;;;;;;;6.63;6.13;;;27.30;71.20;;;;;;5074107;28;20625;-83
2021/09/03 12:05:25;;;;;;;8.53;7.63;;;27.10;69.80;;;;;;5072447;28;20617;-82
2021/09/03 12:08:07;;;;;;;7.67;6.97;;;26.60;67.90;;;;;;5074516;28;20617;-81
2021/09/03 12:10:37;;;;;;;6.97;6.37;;;26.20;69.70;;;;;;5072270;28;20629;-82
2021/09/03 12:13:13;;;;;;;7.17;6.57;;;25.60;71.00;;;;;;5071422;28;20675;-82
2021/09/03 12:15:42;;;;;;;6.87;6.27;;;25.20;73.40;;;;;;5071130;28;20678;-80
2021/09/03 12:18:19;;;;;;;7.47;6.87;;;25.10;74.00;;;;;;5074257;28;21232;-82
2021/09/03 12:20:49;;;;;;;7.07;6.57;;;24.60;72.60;;;;;;5074863;28;20625;-83
2021/09/03 12:23:16;;;;;;;7.20;6.60;;;24.20;76.10;;;;;;5074723;28;20617;-83
2021/09/03 12:25:44;;;;;;;8.20;6.10;;;24.10;75.80;;;;;;5075511;28;20652;-83
2021/09/03 12:28:14;;;;;;;7.93;7.10;;;23.90;78.20;;;;;;5076464;28;21219;-84
2021/09/03 12:30:41;;;;;;;7.47;6.97;;;23.60;78.70;;;;;;5076530;28;20653;-84
2021/09/03 12:33:23;;;;;;;7.13;6.43;;;23.40;80.40;;;;;;5076626;28;21243;-83
2021/09/03 12:35:51;;;;;;;7.23;6.53;;;23.40;80.50;;;;;;5066618;28;20621;-83
2021/09/03 12:38:18;;;;;;;9.90;7.27;;;23.40;78.60;;;;;;5077582;28;20669;-83
2021/09/03 12:40:46;;;;;;;7.57;6.87;;;23.70;75.80;;;;;;5084589;28;20622;-84
2021/09/03 12:43:14;;;;;;;7.30;6.60;;;23.70;76.00;;;;;;5076290;28;20622;-82
2021/09/03 12:45:46;;;;;;;7.67;6.83;;;23.60;77.70;;;;;;5076144;28;20620;-81
2021/09/03 12:48:13;;;;;;;6.80;6.23;;;23.60;78.00;;;;;;5075600;28;20652;-83